createdAt,value
2022-12-19T00:01:38.914Z,18.23
2022-12-19T00:04:08.989Z,19.85
2022-12-19T00:06:37.982Z,20.23
2022-12-19T00:09:10.309Z,20.00
2022-12-19T00:11:38.731Z,20.40
2022-12-19T00:14:06.275Z,19.85
2022-12-19T00:16:33.294Z,20.13
2022-12-19T00:19:01.501Z,20.23
2022-12-19T00:21:30.816Z,19.83
2022-12-19T00:24:00.879Z,19.02
2022-12-19T00:26:35.864Z,17.50
2022-12-19T00:29:09.849Z,20.00
2022-12-19T00:31:39.583Z,20.70
2022-12-19T00:34:06.412Z,21.85
2022-12-19T00:36:34.560Z,21.52
2022-12-19T00:39:06.354Z,20.67
2022-12-19T00:41:36.699Z,21.42
2022-12-19T00:44:09.329Z,23.13
2022-12-19T00:46:36.911Z,20.58
2022-12-19T00:49:05.157Z,20.48
2022-12-19T00:51:34.444Z,20.77
2022-12-19T00:54:02.315Z,19.85
2022-12-19T00:56:37.461Z,20.13
2022-12-19T00:59:06.157Z,21.30
2022-12-19T01:01:36.194Z,23.27
2022-12-19T01:04:27.823Z,22.08
2022-12-19T01:06:51.314Z,20.30
2022-12-19T01:09:18.614Z,23.73
2022-12-19T01:12:04.134Z,22.30
2022-12-19T01:14:30.973Z,20.08
2022-12-19T01:16:57.850Z,21.52
2022-12-19T01:19:25.974Z,21.92
2022-12-19T01:21:52.827Z,21.20
2022-12-19T01:24:20.192Z,21.42
2022-12-19T01:26:47.123Z,22.00
2022-12-19T01:29:14.083Z,22.13
2022-12-19T01:31:40.955Z,20.77
2022-12-19T01:34:07.842Z,23.95
2022-12-19T01:36:39.619Z,25.52
2022-12-19T01:39:07.619Z,21.27
2022-12-19T01:41:35.163Z,23.70
2022-12-19T01:44:05.602Z,24.88
2022-12-19T01:47:04.411Z,21.35
2022-12-19T01:49:33.771Z,23.00
2022-12-19T01:52:04.621Z,18.98
2022-12-19T01:54:35.052Z,21.00
2022-12-19T01:57:05.985Z,22.48
2022-12-19T01:59:36.566Z,21.48
2022-12-19T02:02:34.272Z,21.25
2022-12-19T02:05:01.940Z,21.75
2022-12-19T02:07:28.786Z,24.50
2022-12-19T02:09:57.656Z,21.98
2022-12-19T02:12:26.683Z,14.80
2022-12-19T02:14:54.251Z,22.17
2022-12-19T02:17:33.006Z,23.30
2022-12-19T02:19:59.821Z,22.63
2022-12-19T02:23:05.509Z,22.35
2022-12-19T02:25:56.973Z,23.48
2022-12-19T02:28:47.366Z,25.13
2022-12-19T02:31:26.153Z,23.45
2022-12-19T02:34:42.738Z,23.10
2022-12-19T02:37:20.916Z,20.38
2022-12-19T02:39:59.481Z,21.98
2022-12-19T02:42:38.291Z,21.77
2022-12-19T02:45:08.481Z,19.42
2022-12-19T02:47:35.821Z,17.55
2022-12-19T02:50:04.456Z,18.77
2022-12-19T02:52:31.288Z,20.85
2022-12-19T02:55:04.012Z,16.60
2022-12-19T02:57:45.508Z,17.15
2022-12-19T03:00:19.243Z,20.92
2022-12-19T03:03:01.648Z,16.40
2022-12-19T03:05:45.312Z,18.15
2022-12-19T03:08:15.139Z,16.05
2022-12-19T03:10:45.860Z,19.95
2022-12-19T03:13:34.879Z,19.40
2022-12-19T03:16:04.496Z,19.05
2022-12-19T03:18:32.920Z,20.67
2022-12-19T03:21:13.550Z,18.00
2022-12-19T03:23:40.883Z,18.90
2022-12-19T03:26:11.272Z,17.45
2022-12-19T03:29:02.439Z,18.80
2022-12-19T03:31:31.882Z,17.80
2022-12-19T03:34:03.907Z,16.98
2022-12-19T03:36:34.592Z,16.30
2022-12-19T03:39:02.862Z,19.35
2022-12-19T03:41:49.893Z,17.85
2022-12-19T03:44:18.544Z,20.38
2022-12-19T03:46:51.535Z,20.30
2022-12-19T03:52:00.230Z,19.73
2022-12-19T03:54:33.965Z,18.10
2022-12-19T03:57:24.721Z,18.40
2022-12-19T03:59:57.117Z,19.08
2022-12-19T04:02:24.731Z,18.58
2022-12-19T04:04:59.378Z,20.35
2022-12-19T04:07:26.620Z,20.13
2022-12-19T04:09:54.293Z,20.65
2022-12-19T04:12:28.264Z,15.65
2022-12-19T04:14:55.294Z,19.35
2022-12-19T04:17:22.130Z,18.33
2022-12-19T04:20:19.571Z,18.95
2022-12-19T04:23:11.791Z,20.52
2022-12-19T04:25:45.998Z,12.60
2022-12-19T04:28:20.675Z,17.02
2022-12-19T04:30:49.139Z,19.48
2022-12-19T04:33:15.998Z,19.60
2022-12-19T04:35:42.841Z,21.30
2022-12-19T04:38:09.830Z,19.90
2022-12-19T04:40:41.273Z,19.42
2022-12-19T04:43:09.022Z,19.88
2022-12-19T04:45:36.531Z,19.60
2022-12-19T04:48:03.972Z,20.15
2022-12-19T04:50:33.105Z,20.77
2022-12-19T04:53:00.392Z,16.85
2022-12-19T04:55:27.822Z,21.00
2022-12-19T04:57:54.683Z,21.23
2022-12-19T05:00:21.636Z,21.73
2022-12-19T05:02:48.718Z,22.60
2022-12-19T05:05:16.664Z,20.23
2022-12-19T05:07:43.530Z,20.02
2022-12-19T05:10:10.564Z,22.60
2022-12-19T05:12:37.412Z,20.48
2022-12-19T05:15:05.107Z,18.75
2022-12-19T05:17:32.177Z,21.48
2022-12-19T05:19:59.066Z,21.48
2022-12-19T05:22:25.869Z,15.65
2022-12-19T05:24:53.590Z,21.60
2022-12-19T05:27:20.390Z,18.23
2022-12-19T05:29:47.563Z,17.30
2022-12-19T05:32:14.348Z,16.95
2022-12-19T05:34:41.227Z,18.27
2022-12-19T05:37:08.040Z,16.50
2022-12-19T05:39:35.103Z,17.30
2022-12-19T05:42:01.915Z,18.25
2022-12-19T05:44:28.735Z,16.83
2022-12-19T05:46:55.590Z,16.50
2022-12-19T05:49:22.467Z,16.60
2022-12-19T05:51:51.226Z,14.85
2022-12-19T05:54:18.121Z,15.68
2022-12-19T05:56:45.001Z,12.95
2022-12-19T05:59:11.933Z,13.32
2022-12-19T06:01:39.436Z,15.05
2022-12-19T06:04:07.915Z,12.02
2022-12-19T06:06:34.802Z,12.38
2022-12-19T06:09:03.256Z,12.18
2022-12-19T06:11:30.247Z,12.48
2022-12-19T06:13:57.106Z,11.68
2022-12-19T06:16:24.404Z,12.02
2022-12-19T06:18:51.319Z,10.60
2022-12-19T06:21:20.471Z,14.13
2022-12-19T06:23:47.604Z,13.73
2022-12-19T06:26:19.881Z,11.15
2022-12-19T06:28:48.397Z,10.70
2022-12-19T06:31:15.990Z,10.63
2022-12-19T06:33:44.215Z,9.95
2022-12-19T06:36:24.252Z,8.07
2022-12-19T06:38:51.658Z,10.13
2022-12-19T06:41:37.393Z,8.25
2022-12-19T06:44:06.929Z,8.85
2022-12-19T06:46:34.148Z,6.45
2022-12-19T06:49:01.223Z,6.72
2022-12-19T06:51:28.186Z,7.15
2022-12-19T06:53:55.533Z,5.95
2022-12-19T06:56:22.493Z,5.28
2022-12-19T06:58:50.271Z,7.15
2022-12-19T07:01:18.795Z,6.53
2022-12-19T07:03:47.005Z,4.93
2022-12-19T07:06:13.927Z,4.78
2022-12-19T07:08:40.733Z,4.57
2022-12-19T07:11:08.355Z,4.40
2022-12-19T07:13:35.258Z,5.13
2022-12-19T07:16:03.561Z,5.10
2022-12-19T07:18:32.643Z,4.28
2022-12-19T07:20:59.553Z,4.32
2022-12-19T07:23:26.483Z,4.95
2022-12-19T07:25:53.293Z,4.15
2022-12-19T07:28:20.251Z,4.38
2022-12-19T07:30:47.145Z,4.60
2022-12-19T07:33:19.745Z,4.30
2022-12-19T07:35:48.358Z,4.07
2022-12-19T07:38:15.224Z,4.85
2022-12-19T07:40:42.109Z,5.15
2022-12-19T07:43:08.934Z,5.20
2022-12-19T07:45:38.047Z,4.95
2022-12-19T07:48:06.141Z,4.93
2022-12-19T07:50:33.347Z,5.80
2022-12-19T07:53:00.400Z,5.40
2022-12-19T07:55:27.468Z,5.38
2022-12-19T07:57:55.515Z,5.80
2022-12-19T08:00:23.434Z,6.00
2022-12-19T08:02:51.137Z,6.80
2022-12-19T08:05:18.180Z,6.88
2022-12-19T08:07:45.128Z,6.85
2022-12-19T08:10:14.609Z,7.88
2022-12-19T08:12:42.163Z,7.50
2022-12-19T08:15:09.551Z,7.85
2022-12-19T08:17:38.942Z,7.63
2022-12-19T08:20:07.788Z,7.68
2022-12-19T08:22:34.741Z,8.00
2022-12-19T08:25:01.667Z,7.75
2022-12-19T08:27:28.694Z,7.88
2022-12-19T08:29:55.566Z,7.55
2022-12-19T08:32:22.500Z,8.00
2022-12-19T08:34:50.262Z,7.88
2022-12-19T08:37:17.626Z,8.50
2022-12-19T08:39:44.608Z,8.27
2022-12-19T08:42:11.491Z,7.70
2022-12-19T08:44:38.332Z,8.77
2022-12-19T08:47:05.308Z,8.60
2022-12-19T08:49:32.212Z,8.95
2022-12-19T08:51:59.070Z,8.65
2022-12-19T08:54:27.127Z,8.95
2022-12-19T08:56:54.088Z,8.68
2022-12-19T08:59:31.227Z,10.07
2022-12-19T09:02:02.107Z,9.32
2022-12-19T09:05:57.477Z,9.18
2022-12-19T09:07:17.038Z,8.73
2022-12-19T09:09:45.377Z,8.20
2022-12-19T09:12:16.307Z,7.22
2022-12-19T09:14:44.441Z,9.35
2022-12-19T09:17:11.437Z,9.95
2022-12-19T09:19:38.277Z,9.20
2022-12-19T09:22:06.019Z,9.50
2022-12-19T09:24:32.950Z,8.48
2022-12-19T09:26:59.804Z,8.15
2022-12-19T09:29:29.680Z,9.88
2022-12-19T09:31:59.230Z,9.50
2022-12-19T09:34:38.579Z,10.35
2022-12-19T09:37:16.791Z,9.55
2022-12-19T09:39:48.229Z,8.68
2022-12-19T09:42:26.690Z,8.73
2022-12-19T09:45:37.857Z,9.35
2022-12-19T09:48:10.171Z,8.63
2022-12-19T09:51:11.238Z,7.53
2022-12-19T09:54:03.089Z,8.63
2022-12-19T09:56:34.003Z,9.25
2022-12-19T09:59:42.908Z,9.07
2022-12-19T10:02:51.085Z,9.25
2022-12-19T10:07:07.615Z,8.30
2022-12-19T10:08:45.680Z,8.65
2022-12-19T10:14:23.413Z,9.75
2022-12-19T10:17:28.839Z,8.60
2022-12-19T10:20:14.840Z,8.25
2022-12-19T10:23:18.858Z,9.45
2022-12-19T10:26:02.452Z,8.88
2022-12-19T10:28:51.199Z,7.82
2022-12-19T10:31:30.431Z,9.75
2022-12-19T10:34:01.519Z,8.93
2022-12-19T10:37:04.659Z,9.75
2022-12-19T10:39:26.362Z,8.98
2022-12-19T10:41:57.568Z,9.02
2022-12-19T10:44:26.559Z,8.63
2022-12-19T10:46:53.586Z,8.23
2022-12-19T10:49:24.685Z,8.23
2022-12-19T10:52:02.858Z,8.90
2022-12-19T10:54:57.872Z,9.82
2022-12-19T10:57:28.569Z,7.88
2022-12-19T11:00:00.071Z,8.50
2022-12-19T11:02:39.414Z,8.27
2022-12-19T11:05:26.598Z,7.38
2022-12-19T11:08:06.824Z,7.90
2022-12-19T11:11:15.496Z,8.43
2022-12-19T11:19:33.487Z,9.23
2022-12-19T11:23:17.421Z,9.68
2022-12-19T11:29:33.481Z,9.60
2022-12-19T11:29:41.596Z,9.75
2022-12-19T11:30:36.286Z,7.93
2022-12-19T11:30:48.000Z,8.77
2022-12-19T11:34:19.053Z,7.15
2022-12-19T11:37:24.647Z,7.20
2022-12-19T11:40:11.739Z,9.68
2022-12-19T11:43:41.440Z,9.10
2022-12-19T11:46:04.800Z,6.55
2022-12-19T11:48:47.235Z,8.40
2022-12-19T11:51:28.741Z,8.70
2022-12-19T11:54:22.682Z,8.93
2022-12-19T11:56:49.521Z,8.85
2022-12-19T11:59:21.990Z,8.18
2022-12-19T12:02:25.861Z,8.23
2022-12-19T12:05:28.502Z,8.82
2022-12-19T12:09:35.949Z,9.15
2022-12-19T12:19:01.716Z,9.15
2022-12-19T12:29:24.931Z,10.23
2022-12-19T12:29:46.913Z,10.07
2022-12-19T12:31:18.960Z,10.23
2022-12-19T12:31:42.236Z,10.18
2022-12-19T12:32:02.052Z,8.43
2022-12-19T12:35:48.605Z,8.93
2022-12-19T12:39:04.890Z,9.45
2022-12-19T12:42:03.997Z,8.65
2022-12-19T12:44:42.945Z,8.18
2022-12-19T12:47:24.502Z,8.95
2022-12-19T12:50:15.376Z,8.50
2022-12-19T12:52:47.993Z,16.60
2022-12-19T12:55:18.387Z,9.07
2022-12-19T12:57:45.321Z,8.13
2022-12-19T13:00:27.028Z,9.27
2022-12-19T13:03:13.155Z,9.55
2022-12-19T13:05:49.225Z,9.27
2022-12-19T13:08:38.495Z,8.82
2022-12-19T13:11:49.891Z,7.85
2022-12-19T13:14:34.929Z,7.40
2022-12-19T13:17:25.410Z,7.57
2022-12-19T13:20:05.379Z,7.30
2022-12-19T13:22:32.400Z,8.20
2022-12-19T13:25:00.617Z,8.55
2022-12-19T13:27:34.654Z,7.88
2022-12-19T13:30:01.838Z,28.85
2022-12-19T13:32:54.298Z,12.05
2022-12-19T13:36:38.084Z,12.25
2022-12-19T13:40:01.730Z,9.02
2022-12-19T13:41:48.160Z,6.90
2022-12-19T13:44:19.442Z,8.48
2022-12-19T13:46:47.099Z,7.63
2022-12-19T13:49:15.780Z,6.20
2022-12-19T13:52:03.319Z,6.63
2022-12-19T13:54:34.813Z,6.82
2022-12-19T13:57:06.573Z,6.35
2022-12-19T13:59:38.676Z,7.07
2022-12-19T14:02:17.483Z,6.28
2022-12-19T14:04:44.920Z,6.97
2022-12-19T14:07:36.518Z,7.80
2022-12-19T14:11:37.558Z,8.02
2022-12-19T14:13:47.825Z,7.45
2022-12-19T14:16:00.557Z,8.05
2022-12-19T14:18:45.231Z,6.15
2022-12-19T14:22:09.946Z,7.43
2022-12-19T14:24:19.240Z,7.38
2022-12-19T14:28:26.021Z,7.65
2022-12-19T14:30:27.679Z,8.20
2022-12-19T14:33:45.928Z,8.30
2022-12-19T14:36:12.519Z,8.60
2022-12-19T14:39:20.085Z,8.55
2022-12-19T14:42:00.590Z,8.48
2022-12-19T14:52:34.558Z,8.85
2022-12-19T14:54:13.005Z,12.32
2022-12-19T14:54:16.722Z,8.35
2022-12-19T14:54:40.650Z,8.40
2022-12-19T14:56:36.369Z,11.23
2022-12-19T14:59:00.802Z,8.23
2022-12-19T15:01:33.264Z,7.38
2022-12-19T15:04:51.346Z,9.50
2022-12-19T15:07:08.033Z,7.45
2022-12-19T15:11:08.831Z,8.25
2022-12-19T15:14:51.744Z,8.30
2022-12-19T15:16:01.456Z,8.60
2022-12-19T15:18:34.256Z,9.00
2022-12-19T15:21:10.417Z,10.63
2022-12-19T15:23:37.285Z,8.23
2022-12-19T15:26:19.462Z,8.60
2022-12-19T15:28:50.919Z,7.45
2022-12-19T15:31:38.528Z,7.07
2022-12-19T15:34:36.826Z,7.43
2022-12-19T15:37:13.396Z,7.28
2022-12-19T15:39:41.155Z,7.03
2022-12-19T15:42:17.866Z,6.80
2022-12-19T15:44:45.465Z,8.32
2022-12-19T15:47:32.230Z,7.43
2022-12-19T15:50:02.663Z,7.38
2022-12-19T15:52:29.950Z,7.85
2022-12-19T15:54:57.446Z,8.05
2022-12-19T15:57:29.518Z,7.75
2022-12-19T15:59:58.381Z,9.00
2022-12-19T16:02:42.604Z,9.40
2022-12-19T16:05:17.202Z,6.97
2022-12-19T16:07:44.671Z,5.93
2022-12-19T16:10:12.507Z,6.82
2022-12-19T16:12:48.297Z,5.88
2022-12-19T16:15:29.501Z,6.32
2022-12-19T16:17:57.669Z,7.93
2022-12-19T16:20:28.967Z,5.47
2022-12-19T16:22:56.321Z,7.20
2022-12-19T16:25:28.156Z,6.05
2022-12-19T16:27:57.794Z,8.45
2022-12-19T16:30:29.953Z,8.43
2022-12-19T16:32:56.848Z,5.63
2022-12-19T16:35:54.896Z,6.22
2022-12-19T16:38:12.522Z,7.28
2022-12-19T16:40:39.671Z,5.53
2022-12-19T16:43:15.539Z,7.90
2022-12-19T16:45:43.014Z,7.88
2022-12-19T16:48:24.672Z,28.13
2022-12-19T16:50:51.619Z,34.40
2022-12-19T16:53:19.638Z,14.77
2022-12-19T16:55:47.575Z,10.80
2022-12-19T16:58:19.253Z,10.20
2022-12-19T17:00:46.484Z,15.85
2022-12-19T17:03:28.669Z,6.80
2022-12-19T17:05:55.971Z,6.50
2022-12-19T17:08:23.340Z,6.07
2022-12-19T17:10:50.388Z,8.70
2022-12-19T17:13:21.195Z,6.30
2022-12-19T17:15:52.770Z,6.13
2022-12-19T17:18:28.914Z,5.65
2022-12-19T17:20:55.808Z,5.75
2022-12-19T17:23:24.358Z,6.05
2022-12-19T17:25:51.702Z,5.80
2022-12-19T17:28:18.562Z,5.43
2022-12-19T17:30:50.117Z,13.50
2022-12-19T17:33:17.911Z,7.03
2022-12-19T17:35:45.342Z,5.07
2022-12-19T17:38:15.238Z,5.78
2022-12-19T17:40:42.904Z,5.95
2022-12-19T17:43:13.057Z,5.07
2022-12-19T17:45:41.035Z,11.02
2022-12-19T17:48:19.822Z,7.88
2022-12-19T17:50:46.717Z,5.72
2022-12-19T17:53:14.314Z,4.45
2022-12-19T17:55:41.759Z,7.15
2022-12-19T17:58:10.997Z,5.15
2022-12-19T18:00:38.676Z,5.05
2022-12-19T18:03:25.682Z,6.15
2022-12-19T18:05:54.397Z,5.47
2022-12-19T18:08:29.900Z,7.47
2022-12-19T18:11:02.311Z,5.97
2022-12-19T18:13:30.597Z,4.80
2022-12-19T18:16:00.195Z,4.22
2022-12-19T18:18:29.496Z,4.97
2022-12-19T18:20:57.892Z,4.80
2022-12-19T18:23:24.943Z,19.85
2022-12-19T18:25:57.596Z,7.40
2022-12-19T18:28:28.015Z,5.35
2022-12-19T18:31:00.067Z,8.68
2022-12-19T18:33:27.421Z,5.03
2022-12-19T18:35:54.199Z,5.97
2022-12-19T18:38:23.162Z,6.40
2022-12-19T18:40:52.001Z,4.78
2022-12-19T18:43:19.689Z,4.53
2022-12-19T18:45:49.017Z,4.95
2022-12-19T18:48:32.498Z,7.95
2022-12-19T18:51:01.217Z,5.63
2022-12-19T18:53:36.173Z,6.00
2022-12-19T18:56:04.987Z,5.30
2022-12-19T18:58:32.186Z,6.70
2022-12-19T19:01:00.406Z,9.35
2022-12-19T19:03:34.134Z,6.70
2022-12-19T19:06:01.471Z,8.50
2022-12-19T19:08:30.559Z,8.75
2022-12-19T19:10:57.653Z,6.18
2022-12-19T19:13:26.100Z,8.57
2022-12-19T19:15:58.105Z,9.00
2022-12-19T19:18:39.354Z,6.50
2022-12-19T19:21:07.544Z,6.22
2022-12-19T19:23:38.351Z,10.30
2022-12-19T19:26:05.863Z,8.82
2022-12-19T19:28:32.815Z,5.93
2022-12-19T19:31:00.614Z,6.85
2022-12-19T19:33:31.645Z,7.45
2022-12-19T19:36:09.314Z,6.60
2022-12-19T19:38:41.510Z,6.25
2022-12-19T19:41:08.458Z,8.55
2022-12-19T19:43:35.708Z,6.82
2022-12-19T19:46:02.994Z,17.67
2022-12-19T19:48:30.617Z,7.15
2022-12-19T19:50:57.965Z,10.20
2022-12-19T19:53:25.045Z,7.43
2022-12-19T19:56:02.297Z,6.40
2022-12-19T19:58:29.812Z,6.55
2022-12-19T20:00:57.041Z,6.05
2022-12-19T20:03:24.708Z,6.45
2022-12-19T20:06:01.596Z,5.32
2022-12-19T20:08:33.685Z,7.00
2022-12-19T20:11:05.844Z,5.88
2022-12-19T20:13:32.988Z,10.40
2022-12-19T20:16:08.481Z,7.63
2022-12-19T20:18:36.946Z,7.28
2022-12-19T20:21:09.217Z,6.95
2022-12-19T20:23:40.221Z,9.77
2022-12-19T20:26:07.436Z,7.68
2022-12-19T20:28:34.830Z,8.10
2022-12-19T20:31:02.273Z,9.43
2022-12-19T20:33:29.328Z,6.95
2022-12-19T20:36:06.998Z,6.70
2022-12-19T20:38:33.959Z,6.50
2022-12-19T20:41:01.041Z,7.28
2022-12-19T20:43:28.041Z,6.03
2022-12-19T20:46:06.513Z,5.68
2022-12-19T20:48:33.844Z,7.20
2022-12-19T20:51:02.406Z,6.22
2022-12-19T20:53:29.362Z,6.07
2022-12-19T20:55:59.787Z,6.78
2022-12-19T20:58:28.072Z,5.35
2022-12-19T21:01:03.730Z,6.57
2022-12-19T21:03:30.915Z,6.63
2022-12-19T21:05:58.526Z,6.00
2022-12-19T21:08:26.090Z,6.78
2022-12-19T21:10:53.716Z,6.60
2022-12-19T21:13:21.799Z,6.55
2022-12-19T21:15:56.319Z,6.40
2022-12-19T21:18:23.532Z,6.45
2022-12-19T21:20:52.533Z,6.18
2022-12-19T21:23:19.847Z,6.30
2022-12-19T21:25:46.672Z,5.95
2022-12-19T21:28:13.715Z,5.65
2022-12-19T21:30:40.757Z,8.15
2022-12-19T21:33:08.512Z,6.20
2022-12-19T21:35:35.736Z,5.57
2022-12-19T21:38:02.811Z,6.05
2022-12-19T21:40:29.626Z,5.80
2022-12-19T21:42:56.434Z,5.78
2022-12-19T21:45:23.225Z,5.70
2022-12-19T21:47:50.378Z,5.63
2022-12-19T21:50:17.348Z,5.75
2022-12-19T21:52:44.604Z,5.68
2022-12-19T21:55:11.523Z,6.20
2022-12-19T21:57:40.074Z,5.28
2022-12-19T22:00:09.375Z,5.75
2022-12-19T22:02:36.452Z,5.45
2022-12-19T22:05:03.705Z,5.50
2022-12-19T22:07:30.618Z,5.22
2022-12-19T22:09:57.623Z,5.85
2022-12-19T22:12:24.639Z,5.03
2022-12-19T22:14:52.638Z,5.43
2022-12-19T22:17:19.485Z,5.00
2022-12-19T22:19:46.456Z,5.35
2022-12-19T22:22:13.260Z,5.07
2022-12-19T22:24:40.124Z,4.90
2022-12-19T22:27:06.941Z,5.03
2022-12-19T22:29:36.582Z,5.85
2022-12-19T22:32:04.548Z,5.25
2022-12-19T22:34:31.668Z,5.22
2022-12-19T22:36:58.740Z,5.00
2022-12-19T22:39:25.699Z,4.72
2022-12-19T22:41:52.553Z,5.05
2022-12-19T22:44:21.800Z,4.78
2022-12-19T22:46:49.247Z,5.05
2022-12-19T22:49:16.529Z,4.72
2022-12-19T22:51:43.425Z,4.80
2022-12-19T22:54:11.397Z,4.65
2022-12-19T22:56:39.824Z,3.97
2022-12-19T22:59:08.038Z,5.00
2022-12-19T23:01:42.828Z,4.60
2022-12-19T23:04:13.288Z,4.60
2022-12-19T23:06:40.489Z,4.82
2022-12-19T23:09:08.733Z,5.22
2022-12-19T23:11:38.324Z,4.13
2022-12-19T23:14:07.334Z,4.57
2022-12-19T23:16:34.529Z,4.28
2022-12-19T23:19:01.484Z,4.53
2022-12-19T23:21:28.501Z,4.43
2022-12-19T23:23:56.071Z,4.13
2022-12-19T23:26:25.951Z,4.55
2022-12-19T23:28:58.745Z,3.80
2022-12-19T23:31:26.251Z,3.90
2022-12-19T23:33:53.610Z,3.70
2022-12-19T23:36:38.553Z,3.72
2022-12-19T23:39:07.628Z,3.83
2022-12-19T23:41:34.459Z,3.45
2022-12-19T23:44:01.386Z,3.78
2022-12-19T23:46:28.383Z,3.42
2022-12-19T23:48:55.665Z,2.95
2022-12-19T23:51:25.261Z,3.25
2022-12-19T23:53:53.327Z,3.38
2022-12-19T23:56:24.108Z,3.53
2022-12-19T23:58:51.100Z,3.28
